Time;durP1;ratioP1;P1;durP2;ratioP2;P2;SDS_P1;SDS_P2;PMS_P1;PMS_P2;Temp;Humidity;BMP_temperature;BMP_pressure;BME280_temperature;BME280_humidity;BME280_pressure;Samples;Min_cycle;Max_cycle;Signal;HPM_P1;HPM_P2
2023/07/09 00:00:59;;;;;;;6.78;5.00;;;;;;;;;;2574190;23;19993;-96
2023/07/09 00:02:00;;;;;;;5.53;4.65;;;;;;;;;;2570001;23;20338;-94
2023/07/09 00:03:00;;;;;;;6.18;4.57;;;;;;;;;;2586777;23;19992;-96
2023/07/09 00:04:01;;;;;;;5.25;4.40;;;;;;;;;;2582250;23;19992;-94
2023/07/09 00:05:01;;;;;;;6.75;4.95;;;;;;;;;;2569378;23;20367;-95
2023/07/09 00:06:05;;;;;;;8.50;5.35;;;;;;;;;;2581733;23;20071;-94
2023/07/09 00:07:31;;;;;;;6.78;4.93;;;;;;;;;;2595340;22;19998;-96
2023/07/09 00:08:33;;;;;;;8.40;5.35;;;;;;;;;;2581116;23;20026;-95
2023/07/09 00:09:33;;;;;;;7.60;4.93;;;;;;;;;;2582234;22;20000;-95
2023/07/09 00:10:35;;;;;;;7.10;5.10;;;;;;;;;;2582002;23;20385;-95
2023/07/09 00:11:35;;;;;;;6.80;4.88;;;;;;;;;;2582162;22;20406;-94
2023/07/09 00:12:36;;;;;;;7.85;5.35;;;;;;;;;;2581416;23;20031;-95
2023/07/09 00:13:36;;;;;;;4.97;4.47;;;;;;;;;;2569671;23;20015;-94
2023/07/09 00:14:37;;;;;;;7.22;4.68;;;;;;;;;;2601807;22;20026;-96
2023/07/09 00:15:37;;;;;;;6.78;5.00;;;;;;;;;;2615481;22;20006;-93
2023/07/09 00:16:39;;;;;;;6.03;4.78;;;;;;;;;;2589974;23;20069;-95
2023/07/09 00:17:42;;;;;;;5.70;4.97;;;;;;;;;;2594528;22;20001;-94
2023/07/09 00:18:43;;;;;;;5.85;4.82;;;;;;;;;;2595112;23;20026;-95
2023/07/09 00:19:46;;;;;;;6.40;4.95;;;;;;;;;;2586507;23;20102;-96
2023/07/09 00:20:48;;;;;;;6.57;5.07;;;;;;;;;;2591355;23;20421;-95
2023/07/09 00:21:55;;;;;;;5.90;4.65;;;;;;;;;;2589360;23;19996;-95
2023/07/09 00:22:55;;;;;;;8.63;5.32;;;;;;;;;;2581563;22;19980;-94
2023/07/09 00:23:55;;;;;;;4.78;4.38;;;;;;;;;;2579628;23;20020;-92
2023/07/09 00:24:59;;;;;;;5.30;4.50;;;;;;;;;;2600314;22;20427;-94
2023/07/09 00:26:02;;;;;;;6.47;5.00;;;;;;;;;;2595856;22;19996;-96
2023/07/09 00:27:09;;;;;;;5.70;5.10;;;;;;;;;;2594106;22;20087;-94
2023/07/09 00:28:13;;;;;;;8.27;5.20;;;;;;;;;;2593809;22;20044;-95
2023/07/09 00:29:17;;;;;;;5.15;4.30;;;;;;;;;;2581692;23;20077;-93
2023/07/09 00:30:21;;;;;;;5.10;4.30;;;;;;;;;;2596164;22;20000;-95
2023/07/09 00:31:23;;;;;;;6.47;4.85;;;;;;;;;;2598702;22;20000;-95
2023/07/09 00:32:24;;;;;;;6.80;4.80;;;;;;;;;;2579922;23;20005;-94
2023/07/09 00:33:31;;;;;;;7.30;4.97;;;;;;;;;;2595162;23;20054;-94
2023/07/09 00:34:31;;;;;;;6.35;5.13;;;;;;;;;;2594446;23;20004;-94
2023/07/09 00:35:32;;;;;;;5.93;4.80;;;;;;;;;;2578350;23;19997;-93
2023/07/09 00:36:32;;;;;;;10.45;5.43;;;;;;;;;;2574642;23;20071;-93
2023/07/09 00:37:33;;;;;;;5.80;4.95;;;;;;;;;;2579412;23;19993;-94
2023/07/09 00:38:38;;;;;;;5.85;5.00;;;;;;;;;;2575899;23;20079;-93
2023/07/09 00:39:40;;;;;;;5.22;4.47;;;;;;;;;;2575298;23;19993;-95
2023/07/09 00:40:59;;;;;;;9.20;5.10;;;;;;;;;;2594833;22;20054;-93
2023/07/09 00:41:59;;;;;;;7.97;4.95;;;;;;;;;;2147381;22;10285200;-95
2023/07/09 00:43:00;;;;;;;8.70;4.80;;;;;;;;;;2569600;23;20399;-93
2023/07/09 00:44:22;;;;;;;7.90;5.70;;;;;;;;;;2584536;22;19992;-93
2023/07/09 00:45:26;;;;;;;7.35;5.00;;;;;;;;;;2574028;23;20008;-93
2023/07/09 00:46:27;;;;;;;5.60;4.70;;;;;;;;;;2582982;22;20355;-94
2023/07/09 00:47:48;;;;;;;7.80;5.47;;;;;;;;;;2582189;23;20007;-93
2023/07/09 00:49:05;;;;;;;5.90;4.68;;;;;;;;;;2581772;22;20085;-93
2023/07/09 00:50:34;;;;;;;8.70;5.10;;;;;;;;;;2573313;23;19993;-96
2023/07/09 00:51:41;;;;;;;6.75;5.55;;;;;;;;;;2567796;22;20022;-94
2023/07/09 00:52:53;;;;;;;10.73;7.47;;;;;;;;;;2583316;23;19996;-96
2023/07/09 00:54:00;;;;;;;7.32;6.03;;;;;;;;;;2572268;23;19996;-96
2023/07/09 00:55:07;;;;;;;6.93;5.57;;;;;;;;;;2586894;23;19988;-96
2023/07/09 00:56:11;;;;;;;5.93;5.03;;;;;;;;;;2584322;23;20472;-95
2023/07/09 00:57:17;;;;;;;10.90;5.60;;;;;;;;;;2584563;22;20059;-95
2023/07/09 00:58:20;;;;;;;7.78;5.20;;;;;;;;;;2599772;22;20007;-96
2023/07/09 00:59:24;;;;;;;9.75;5.50;;;;;;;;;;2585959;23;20000;-95
2023/07/09 01:00:30;;;;;;;8.25;5.70;;;;;;;;;;2574631;23;20004;-94
2023/07/09 01:01:33;;;;;;;6.38;5.72;;;;;;;;;;2573564;23;19997;-95
2023/07/09 01:02:34;;;;;;;7.65;5.15;;;;;;;;;;2570750;23;20003;-95
2023/07/09 01:03:44;;;;;;;6.28;5.07;;;;;;;;;;2570338;23;20374;-95
2023/07/09 01:04:47;;;;;;;9.45;5.30;;;;;;;;;;2572366;23;20036;-95
2023/07/09 01:05:51;;;;;;;8.27;5.70;;;;;;;;;;2571642;23;20031;-95
2023/07/09 01:06:54;;;;;;;10.57;5.65;;;;;;;;;;2571211;23;20076;-95
2023/07/09 01:07:58;;;;;;;6.53;5.85;;;;;;;;;;2571274;23;20072;-96
2023/07/09 01:09:07;;;;;;;7.75;5.97;;;;;;;;;;2571055;23;19996;-96
2023/07/09 01:10:08;;;;;;;6.28;5.65;;;;;;;;;;2584392;23;20015;-95
2023/07/09 01:11:21;;;;;;;9.04;5.70;;;;;;;;;;2525542;22;11277637;-96
2023/07/09 01:12:23;;;;;;;7.20;5.28;;;;;;;;;;2577959;23;20214;-96
2023/07/09 01:13:26;;;;;;;6.80;5.45;;;;;;;;;;2583707;22;20066;-96
2023/07/09 01:14:26;;;;;;;6.43;5.60;;;;;;;;;;2583112;23;20059;-96
2023/07/09 01:15:27;;;;;;;7.43;5.57;;;;;;;;;;2570789;23;19997;-96
2023/07/09 01:16:31;;;;;;;10.23;6.10;;;;;;;;;;2570817;23;20067;-96
2023/07/09 01:17:32;;;;;;;8.55;5.93;;;;;;;;;;2596277;22;20022;-96
2023/07/09 01:18:33;;;;;;;10.35;6.60;;;;;;;;;;2596001;22;20006;-96
2023/07/09 01:19:44;;;;;;;8.23;5.90;;;;;;;;;;2583360;22;20374;-96
2023/07/09 01:20:46;;;;;;;9.07;6.07;;;;;;;;;;2595422;22;19992;-96
2023/07/09 01:21:48;;;;;;;8.90;5.88;;;;;;;;;;2583004;23;20008;-96
2023/07/09 01:22:50;;;;;;;7.53;6.40;;;;;;;;;;2570079;23;20035;-93
2023/07/09 01:23:54;;;;;;;8.38;5.60;;;;;;;;;;2586777;23;20402;-94
2023/07/09 01:25:06;;;;;;;7.47;5.82;;;;;;;;;;2587308;23;19988;-94
2023/07/09 01:26:07;;;;;;;8.82;6.05;;;;;;;;;;2586599;23;20023;-94
2023/07/09 01:27:07;;;;;;;18.52;6.85;;;;;;;;;;2570464;23;19997;-94
2023/07/09 01:28:08;;;;;;;8.73;5.85;;;;;;;;;;2582245;23;20000;-94
2023/07/09 01:29:08;;;;;;;6.32;5.60;;;;;;;;;;2599461;22;19988;-94
2023/07/09 01:30:30;;;;;;;7.95;5.80;;;;;;;;;;2582137;23;20106;-94
2023/07/09 01:31:30;;;;;;;7.82;5.13;;;;;;;;;;2574524;23;20071;-94
2023/07/09 01:32:31;;;;;;;9.65;6.10;;;;;;;;;;2582683;23;20005;-94
2023/07/09 01:33:31;;;;;;;6.18;5.38;;;;;;;;;;2569677;23;20126;-94
2023/07/09 01:34:32;;;;;;;8.27;5.90;;;;;;;;;;2594971;22;19992;-94
2023/07/09 01:35:36;;;;;;;7.00;4.75;;;;;;;;;;2612118;22;20028;-95
2023/07/09 01:36:39;;;;;;;6.10;5.20;;;;;;;;;;2587525;23;20498;-93
2023/07/09 01:37:40;;;;;;;7.90;6.20;;;;;;;;;;2581659;23;20003;-94
2023/07/09 01:38:41;;;;;;;6.82;6.13;;;;;;;;;;2586760;23;19992;-93
2023/07/09 01:39:45;;;;;;;8.52;5.93;;;;;;;;;;2582118;23;20427;-93
2023/07/09 01:40:46;;;;;;;7.95;5.82;;;;;;;;;;2571185;23;20442;-95
2023/07/09 01:41:47;;;;;;;11.88;6.00;;;;;;;;;;2587179;23;20000;-93
2023/07/09 01:42:47;;;;;;;9.18;5.85;;;;;;;;;;2582368;23;20028;-91
2023/07/09 01:43:48;;;;;;;9.02;5.85;;;;;;;;;;2586926;23;20016;-92
2023/07/09 01:44:50;;;;;;;7.95;5.30;;;;;;;;;;2595255;22;20355;-93
2023/07/09 01:45:51;;;;;;;9.43;5.72;;;;;;;;;;2582615;23;19996;-94
2023/07/09 01:46:53;;;;;;;6.53;5.13;;;;;;;;;;2570224;23;20093;-94
2023/07/09 01:47:55;;;;;;;7.75;5.90;;;;;;;;;;2570045;23;20012;-93
2023/07/09 01:48:55;;;;;;;9.15;6.15;;;;;;;;;;2569944;23;20074;-93
2023/07/09 01:49:56;;;;;;;7.47;5.88;;;;;;;;;;2582580;23;20116;-92
2023/07/09 01:50:57;;;;;;;6.85;5.75;;;;;;;;;;2582372;22;19996;-92
2023/07/09 01:52:02;;;;;;;7.85;5.93;;;;;;;;;;2582443;23;20121;-93
2023/07/09 01:53:03;;;;;;;7.35;6.07;;;;;;;;;;2570371;23;20004;-93
2023/07/09 01:54:03;;;;;;;7.93;6.30;;;;;;;;;;2586647;23;20028;-92
2023/07/09 01:55:05;;;;;;;10.25;6.13;;;;;;;;;;2587079;22;20042;-92
2023/07/09 01:56:08;;;;;;;11.05;6.22;;;;;;;;;;2581628;23;20022;-93
2023/07/09 01:57:15;;;;;;;7.53;6.50;;;;;;;;;;2570364;23;19988;-93
2023/07/09 01:58:16;;;;;;;7.53;6.18;;;;;;;;;;2573284;23;20079;-92
2023/07/09 01:59:16;;;;;;;8.75;7.00;;;;;;;;;;2576110;23;19992;-90
2023/07/09 02:00:17;;;;;;;6.68;6.00;;;;;;;;;;2578619;23;20028;-91
2023/07/09 02:01:19;;;;;;;7.70;6.05;;;;;;;;;;2583257;22;20000;-93
2023/07/09 02:02:23;;;;;;;7.65;6.28;;;;;;;;;;2582469;23;20004;-93
2023/07/09 02:03:24;;;;;;;7.20;5.80;;;;;;;;;;2570594;23;20094;-94
2023/07/09 02:04:27;;;;;;;8.43;6.75;;;;;;;;;;2570221;23;19996;-94
2023/07/09 02:05:30;;;;;;;8.23;6.38;;;;;;;;;;2570576;23;20096;-94
2023/07/09 02:06:41;;;;;;;8.65;5.70;;;;;;;;;;2474297;23;10002232;-92
2023/07/09 02:07:41;;;;;;;6.47;5.82;;;;;;;;;;2584215;22;20225;-92
2023/07/09 02:08:42;;;;;;;7.88;6.13;;;;;;;;;;2578995;23;20003;-92
2023/07/09 02:09:42;;;;;;;13.05;6.38;;;;;;;;;;2569740;23;20433;-93
2023/07/09 02:10:44;;;;;;;6.80;6.15;;;;;;;;;;2569718;23;20458;-94
2023/07/09 02:11:45;;;;;;;7.93;6.00;;;;;;;;;;2586689;23;19995;-93
2023/07/09 02:12:46;;;;;;;7.00;6.30;;;;;;;;;;2587345;23;20286;-92
2023/07/09 02:13:46;;;;;;;7.07;6.38;;;;;;;;;;2582327;23;20016;-93
2023/07/09 02:14:47;;;;;;;6.80;5.90;;;;;;;;;;2569739;23;20004;-93
2023/07/09 02:15:47;;;;;;;7.10;6.30;;;;;;;;;;2582483;23;20007;-94
2023/07/09 02:16:48;;;;;;;7.80;6.50;;;;;;;;;;2582612;23;20000;-93
2023/07/09 02:17:49;;;;;;;7.97;6.35;;;;;;;;;;2582278;23;20014;-94
2023/07/09 02:18:50;;;;;;;6.40;5.80;;;;;;;;;;2582226;23;20000;-93
2023/07/09 02:19:51;;;;;;;8.13;6.65;;;;;;;;;;2569707;23;20023;-95
2023/07/09 02:20:51;;;;;;;8.43;6.47;;;;;;;;;;2586572;23;19996;-91
2023/07/09 02:21:52;;;;;;;6.53;5.78;;;;;;;;;;2582319;23;20383;-94
2023/07/09 02:22:52;;;;;;;8.02;6.30;;;;;;;;;;2570317;23;20151;-94
2023/07/09 02:23:53;;;;;;;9.45;6.15;;;;;;;;;;2569615;23;20549;-93
2023/07/09 02:24:54;;;;;;;7.02;5.96;;;;;;;;;;2124487;23;10401328;-93
2023/07/09 02:25:55;;;;;;;6.38;5.78;;;;;;;;;;2571250;23;20084;-93
2023/07/09 02:26:56;;;;;;;8.88;6.70;;;;;;;;;;2569655;23;20003;-94
2023/07/09 02:27:57;;;;;;;7.25;5.80;;;;;;;;;;2573874;23;20012;-93
2023/07/09 02:28:58;;;;;;;9.63;6.35;;;;;;;;;;2569572;23;20418;-91
2023/07/09 02:30:00;;;;;;;6.93;6.15;;;;;;;;;;2586589;23;20022;-93
2023/07/09 02:31:00;;;;;;;10.10;6.43;;;;;;;;;;2582406;23;20007;-93
2023/07/09 02:32:01;;;;;;;7.78;5.78;;;;;;;;;;2586185;22;20424;-93
2023/07/09 02:33:01;;;;;;;6.82;6.10;;;;;;;;;;2581725;23;20051;-92
2023/07/09 02:34:03;;;;;;;8.52;5.88;;;;;;;;;;2569452;23;20001;-93
2023/07/09 02:35:04;;;;;;;7.78;6.10;;;;;;;;;;2569614;23;19992;-93
2023/07/09 02:36:05;;;;;;;11.38;6.60;;;;;;;;;;2586650;23;20079;-92
2023/07/09 02:37:05;;;;;;;8.35;5.25;;;;;;;;;;2582043;23;20000;-93
2023/07/09 02:38:06;;;;;;;8.52;5.72;;;;;;;;;;2582123;23;19992;-92
2023/07/09 02:39:07;;;;;;;8.00;7.10;;;;;;;;;;2582112;23;20003;-91
2023/07/09 02:40:09;;;;;;;7.00;5.70;;;;;;;;;;2594625;22;19991;-93
2023/07/09 02:41:09;;;;;;;7.97;6.32;;;;;;;;;;2581862;23;19996;-92
2023/07/09 02:42:11;;;;;;;7.50;5.63;;;;;;;;;;2586384;23;20030;-93
2023/07/09 02:43:11;;;;;;;7.57;6.03;;;;;;;;;;2582042;23;19996;-94
2023/07/09 02:44:12;;;;;;;10.60;5.88;;;;;;;;;;2581667;23;20045;-92
2023/07/09 02:45:12;;;;;;;7.32;5.75;;;;;;;;;;2581587;23;20027;-93
2023/07/09 02:46:13;;;;;;;7.00;6.00;;;;;;;;;;2571782;23;20001;-92
2023/07/09 02:47:14;;;;;;;7.93;5.80;;;;;;;;;;2576873;23;20008;-91
2023/07/09 02:48:14;;;;;;;8.05;6.13;;;;;;;;;;2564145;23;20001;-93
2023/07/09 02:49:16;;;;;;;8.02;5.70;;;;;;;;;;2569252;23;19992;-93
2023/07/09 02:50:16;;;;;;;7.10;6.05;;;;;;;;;;2569424;23;19996;-93
2023/07/09 02:51:17;;;;;;;7.15;6.20;;;;;;;;;;2582102;23;20054;-93
2023/07/09 02:52:17;;;;;;;8.55;6.32;;;;;;;;;;2592252;22;20007;-93
2023/07/09 02:53:17;;;;;;;6.47;5.50;;;;;;;;;;2580562;23;20047;-92
2023/07/09 02:54:18;;;;;;;8.60;6.18;;;;;;;;;;2580985;23;20060;-93
2023/07/09 02:55:18;;;;;;;11.18;5.88;;;;;;;;;;2586846;22;20000;-93
2023/07/09 02:56:19;;;;;;;9.50;6.30;;;;;;;;;;2582874;23;20004;-94
2023/07/09 02:57:19;;;;;;;7.93;6.05;;;;;;;;;;2569829;23;19997;-92
2023/07/09 02:58:21;;;;;;;6.68;5.43;;;;;;;;;;2569586;23;20027;-93
2023/07/09 02:59:22;;;;;;;7.68;5.97;;;;;;;;;;2581958;23;20023;-94
2023/07/09 03:00:22;;;;;;;6.60;5.80;;;;;;;;;;2586322;23;19992;-93
2023/07/09 03:01:24;;;;;;;11.52;7.00;;;;;;;;;;2594672;22;20086;-93
2023/07/09 03:02:26;;;;;;;8.27;5.75;;;;;;;;;;2581903;23;20003;-94
2023/07/09 03:03:28;;;;;;;9.93;6.18;;;;;;;;;;2569645;23;20004;-95
2023/07/09 03:04:28;;;;;;;9.18;6.85;;;;;;;;;;2569794;23;20031;-92
2023/07/09 03:05:29;;;;;;;9.00;6.20;;;;;;;;;;2569362;23;20019;-94
2023/07/09 03:06:32;;;;;;;6.55;5.40;;;;;;;;;;2569933;23;20075;-94
2023/07/09 03:07:33;;;;;;;11.32;5.95;;;;;;;;;;2569934;23;20170;-92
2023/07/09 03:08:33;;;;;;;7.68;5.70;;;;;;;;;;2581944;23;20077;-92
2023/07/09 03:09:34;;;;;;;7.15;6.00;;;;;;;;;;2594331;22;19996;-93
2023/07/09 03:10:34;;;;;;;6.93;5.70;;;;;;;;;;2582119;23;20543;-92
2023/07/09 03:11:35;;;;;;;8.90;6.07;;;;;;;;;;2123320;23;10461543;-94
2023/07/09 03:12:36;;;;;;;10.10;5.88;;;;;;;;;;2594252;22;19999;-93
2023/07/09 03:13:36;;;;;;;7.97;6.00;;;;;;;;;;2589414;22;20000;-92
2023/07/09 03:14:37;;;;;;;8.00;5.88;;;;;;;;;;2581643;23;20075;-92
2023/07/09 03:15:37;;;;;;;8.15;6.30;;;;;;;;;;2578978;22;20357;-93
2023/07/09 03:16:38;;;;;;;6.50;5.75;;;;;;;;;;2582643;23;20051;-95
2023/07/09 03:17:38;;;;;;;8.27;5.88;;;;;;;;;;2582164;23;19996;-93
2023/07/09 03:18:39;;;;;;;6.53;5.70;;;;;;;;;;2594910;22;20003;-93
2023/07/09 03:19:40;;;;;;;8.35;5.93;;;;;;;;;;2582708;23;20072;-94
2023/07/09 03:20:40;;;;;;;6.93;6.10;;;;;;;;;;2586378;23;20496;-93
2023/07/09 03:21:40;;;;;;;5.88;5.30;;;;;;;;;;2583749;23;20018;-95
2023/07/09 03:22:41;;;;;;;7.93;5.97;;;;;;;;;;2582907;23;20038;-93
2023/07/09 03:23:41;;;;;;;8.30;5.30;;;;;;;;;;2595533;22;20049;-93
2023/07/09 03:24:42;;;;;;;8.95;5.75;;;;;;;;;;2582336;23;20000;-94
2023/07/09 03:25:43;;;;;;;6.38;5.25;;;;;;;;;;2569858;23;20016;-93
2023/07/09 03:26:45;;;;;;;7.78;5.38;;;;;;;;;;2595483;22;20134;-94
2023/07/09 03:27:48;;;;;;;8.88;5.93;;;;;;;;;;2594744;22;20473;-93
2023/07/09 03:28:49;;;;;;;7.10;4.93;;;;;;;;;;2582330;22;19996;-93
2023/07/09 03:29:49;;;;;;;7.45;5.60;;;;;;;;;;2583036;23;20135;-94
2023/07/09 03:31:10;;;;;;;7.63;5.35;;;;;;;;;;2582643;23;20347;-93
2023/07/09 03:32:11;;;;;;;5.47;4.80;;;;;;;;;;2594037;22;20011;-95
2023/07/09 03:33:13;;;;;;;6.47;5.28;;;;;;;;;;2599035;22;20011;-94
2023/07/09 03:34:14;;;;;;;6.60;5.40;;;;;;;;;;2584603;23;20333;-93
2023/07/09 03:35:15;;;;;;;7.43;5.45;;;;;;;;;;2593471;23;19992;-90
2023/07/09 03:36:17;;;;;;;6.32;5.22;;;;;;;;;;2586907;23;20027;-93
2023/07/09 03:37:17;;;;;;;7.40;5.38;;;;;;;;;;2585738;23;19996;-93
2023/07/09 03:38:18;;;;;;;7.55;5.28;;;;;;;;;;2581546;23;20023;-94
2023/07/09 03:39:18;;;;;;;7.97;5.47;;;;;;;;;;2581320;23;20018;-92
2023/07/09 03:40:22;;;;;;;5.82;5.30;;;;;;;;;;2581496;23;19996;-93
2023/07/09 03:41:23;;;;;;;6.97;5.35;;;;;;;;;;2594066;22;19992;-93
2023/07/09 03:42:26;;;;;;;6.55;4.72;;;;;;;;;;2581776;23;20039;-93
2023/07/09 03:43:26;;;;;;;8.43;5.75;;;;;;;;;;2569272;23;19997;-92
2023/07/09 03:44:27;;;;;;;9.00;5.22;;;;;;;;;;2568943;23;20031;-92
2023/07/09 03:45:32;;;;;;;6.10;5.50;;;;;;;;;;2581431;23;19999;-93
2023/07/09 03:46:32;;;;;;;6.68;5.43;;;;;;;;;;2569346;23;20054;-93
2023/07/09 03:47:32;;;;;;;6.40;5.03;;;;;;;;;;2568272;23;20008;-93
2023/07/09 03:48:33;;;;;;;6.07;5.10;;;;;;;;;;2593887;22;19991;-93
2023/07/09 03:49:33;;;;;;;6.75;4.97;;;;;;;;;;2600699;22;19999;-93
2023/07/09 03:50:34;;;;;;;6.57;5.15;;;;;;;;;;2577620;23;20023;-92
2023/07/09 03:51:34;;;;;;;8.65;5.78;;;;;;;;;;2590263;23;20019;-92
2023/07/09 03:52:35;;;;;;;8.57;5.40;;;;;;;;;;2591007;23;20373;-93
2023/07/09 03:53:35;;;;;;;7.50;5.25;;;;;;;;;;2600920;22;19988;-92
2023/07/09 03:54:36;;;;;;;6.38;5.25;;;;;;;;;;2599362;22;19998;-92
2023/07/09 03:55:37;;;;;;;7.68;5.38;;;;;;;;;;2582000;23;20517;-92
2023/07/09 03:56:37;;;;;;;6.50;4.90;;;;;;;;;;2569148;23;19996;-91
2023/07/09 03:57:38;;;;;;;5.40;4.80;;;;;;;;;;2568993;23;20024;-91
2023/07/09 03:58:38;;;;;;;8.45;5.40;;;;;;;;;;2568753;23;20402;-91
2023/07/09 03:59:39;;;;;;;5.80;5.00;;;;;;;;;;2568817;23;19997;-92
2023/07/09 04:00:40;;;;;;;7.60;4.65;;;;;;;;;;2585658;23;19992;-92
2023/07/09 04:01:46;;;;;;;6.88;4.90;;;;;;;;;;2586184;23;19999;-92
2023/07/09 04:02:46;;;;;;;6.38;5.20;;;;;;;;;;2584810;23;20000;-91
2023/07/09 04:03:50;;;;;;;6.95;5.30;;;;;;;;;;2568581;23;20462;-92
2023/07/09 04:04:51;;;;;;;8.43;5.18;;;;;;;;;;2585462;23;20067;-93
2023/07/09 04:05:51;;;;;;;6.95;5.35;;;;;;;;;;2586469;22;20064;-92
2023/07/09 04:06:54;;;;;;;7.10;4.88;;;;;;;;;;2588689;23;20003;-92
2023/07/09 04:07:55;;;;;;;5.93;4.60;;;;;;;;;;2595176;23;20246;-93
2023/07/09 04:08:56;;;;;;;6.43;4.55;;;;;;;;;;2591171;23;20012;-92
2023/07/09 04:09:56;;;;;;;7.65;5.00;;;;;;;;;;2604036;22;20017;-92
2023/07/09 04:11:02;;;;;;;7.18;4.82;;;;;;;;;;2604166;22;19994;-92
2023/07/09 04:12:03;;;;;;;7.55;4.47;;;;;;;;;;2582033;23;20002;-92
2023/07/09 04:13:03;;;;;;;5.90;4.53;;;;;;;;;;2581456;23;20019;-91
2023/07/09 04:14:04;;;;;;;6.20;4.78;;;;;;;;;;2568684;23;20055;-92
2023/07/09 04:15:05;;;;;;;5.80;4.88;;;;;;;;;;2585889;23;19992;-92
2023/07/09 04:16:06;;;;;;;6.43;4.90;;;;;;;;;;2586682;22;20333;-94
2023/07/09 04:17:06;;;;;;;5.80;4.97;;;;;;;;;;2586284;23;19988;-94
2023/07/09 04:18:07;;;;;;;6.28;4.68;;;;;;;;;;2586986;23;20082;-94
2023/07/09 04:19:07;;;;;;;6.68;5.15;;;;;;;;;;2581432;23;20062;-91
2023/07/09 04:20:09;;;;;;;5.93;5.35;;;;;;;;;;2585505;23;19996;-91
2023/07/09 04:21:10;;;;;;;7.53;5.15;;;;;;;;;;2581558;23;20450;-90
2023/07/09 04:22:13;;;;;;;7.20;5.15;;;;;;;;;;2569307;23;20004;-92
2023/07/09 04:23:14;;;;;;;9.25;5.65;;;;;;;;;;2589096;23;20031;-92
2023/07/09 04:24:17;;;;;;;6.57;4.95;;;;;;;;;;2587818;23;20000;-93
2023/07/09 04:25:17;;;;;;;7.90;5.85;;;;;;;;;;2581674;22;19996;-92
2023/07/09 04:26:18;;;;;;;7.03;5.20;;;;;;;;;;2140595;22;10223994;-93
2023/07/09 04:27:19;;;;;;;5.75;5.20;;;;;;;;;;2585781;23;20430;-93
2023/07/09 04:28:21;;;;;;;7.65;5.50;;;;;;;;;;2581588;23;20051;-93
2023/07/09 04:29:23;;;;;;;6.30;5.15;;;;;;;;;;2569298;23;20027;-93
2023/07/09 04:30:24;;;;;;;7.35;5.15;;;;;;;;;;2568757;23;19997;-93
2023/07/09 04:31:24;;;;;;;9.57;5.82;;;;;;;;;;2585286;23;20002;-92
2023/07/09 04:32:25;;;;;;;7.28;5.32;;;;;;;;;;2586303;22;20000;-91
2023/07/09 04:33:25;;;;;;;6.50;4.95;;;;;;;;;;2584457;23;20039;-93
2023/07/09 04:34:26;;;;;;;6.43;5.07;;;;;;;;;;2582669;23;20000;-93
2023/07/09 04:35:30;;;;;;;6.78;5.15;;;;;;;;;;2582754;23;19996;-93
2023/07/09 04:36:31;;;;;;;5.47;4.50;;;;;;;;;;2138759;22;10365943;-93
2023/07/09 04:37:32;;;;;;;7.47;5.00;;;;;;;;;;2582168;23;19988;-94
2023/07/09 04:38:33;;;;;;;5.55;4.57;;;;;;;;;;2570183;23;19997;-95
2023/07/09 04:39:33;;;;;;;5.75;4.90;;;;;;;;;;2582596;23;20000;-94
2023/07/09 04:40:34;;;;;;;7.20;5.28;;;;;;;;;;2584994;23;20012;-93
2023/07/09 04:41:41;;;;;;;6.47;4.93;;;;;;;;;;2570626;23;19992;-94
2023/07/09 04:43:56;;;;;;;7.03;4.57;;;;;;;;;;2589713;22;20394;-96
2023/07/09 04:44:57;;;;;;;6.60;5.03;;;;;;;;;;2588282;23;19992;-94
2023/07/09 04:46:00;;;;;;;9.13;4.78;;;;;;;;;;2571019;23;19997;-93
2023/07/09 04:47:00;;;;;;;7.20;4.30;;;;;;;;;;2558774;23;20008;-93
2023/07/09 04:48:01;;;;;;;6.05;4.30;;;;;;;;;;2558325;23;20443;-95
2023/07/09 04:52:36;;;;;;;6.03;4.50;;;;;;;;;;2588681;23;20004;-96
2023/07/09 04:53:37;;;;;;;6.43;4.57;;;;;;;;;;2570437;23;20004;-96
2023/07/09 04:54:44;;;;;;;6.75;4.90;;;;;;;;;;2558865;23;20001;-95
2023/07/09 04:55:45;;;;;;;5.80;4.43;;;;;;;;;;2577860;23;20500;-94
2023/07/09 04:56:45;;;;;;;6.10;4.78;;;;;;;;;;2571188;23;20030;-96
2023/07/09 04:57:46;;;;;;;5.72;5.10;;;;;;;;;;2570555;23;20085;-95
2023/07/09 04:58:46;;;;;;;5.47;4.53;;;;;;;;;;2583058;23;20038;-93
2023/07/09 04:59:47;;;;;;;6.35;5.05;;;;;;;;;;2583863;22;19996;-93
2023/07/09 05:00:50;;;;;;;5.57;4.90;;;;;;;;;;2572904;23;20001;-95
2023/07/09 05:02:08;;;;;;;5.57;4.53;;;;;;;;;;2558805;23;20004;-96
2023/07/09 05:03:09;;;;;;;4.35;3.95;;;;;;;;;;2561355;23;19989;-93
2023/07/09 05:04:09;;;;;;;5.75;4.15;;;;;;;;;;2558078;23;19997;-93
2023/07/09 05:05:11;;;;;;;4.85;3.80;;;;;;;;;;2570359;23;20007;-94
2023/07/09 05:06:14;;;;;;;6.82;3.90;;;;;;;;;;2570532;23;19993;-95
2023/07/09 05:07:16;;;;;;;6.20;4.10;;;;;;;;;;2570274;23;20091;-94
2023/07/09 05:08:17;;;;;;;6.57;4.03;;;;;;;;;;2569953;23;20513;-94
2023/07/09 05:09:19;;;;;;;4.85;4.22;;;;;;;;;;2570048;23;20001;-94
2023/07/09 05:10:19;;;;;;;4.78;3.97;;;;;;;;;;2572360;23;19992;-94
2023/07/09 05:11:20;;;;;;;4.15;3.75;;;;;;;;;;2565364;23;20001;-92
2023/07/09 05:12:20;;;;;;;6.00;4.30;;;;;;;;;;2575337;23;20079;-94
2023/07/09 05:13:21;;;;;;;4.65;4.10;;;;;;;;;;2584618;22;19999;-96
2023/07/09 05:16:19;;;;;;;5.97;3.97;;;;;;;;;;2585495;23;20441;-95
2023/07/09 05:17:19;;;;;;;4.70;3.45;;;;;;;;;;2577352;22;20068;-93
2023/07/09 05:18:22;;;;;;;6.47;4.70;;;;;;;;;;2569180;23;20009;-93
2023/07/09 05:19:22;;;;;;;5.85;4.30;;;;;;;;;;2586444;22;19993;-91
2023/07/09 05:20:25;;;;;;;4.45;4.05;;;;;;;;;;2598371;22;20004;-96
2023/07/09 05:21:26;;;;;;;5.85;3.90;;;;;;;;;;2571601;23;20383;-94
2023/07/09 05:22:29;;;;;;;5.82;3.75;;;;;;;;;;2574781;23;20001;-96
2023/07/09 05:23:36;;;;;;;4.20;3.72;;;;;;;;;;2583388;23;19992;-94
2023/07/09 05:24:36;;;;;;;5.88;3.70;;;;;;;;;;2569909;23;20031;-94
2023/07/09 05:25:37;;;;;;;5.07;4.30;;;;;;;;;;2559331;23;20013;-94
2023/07/09 05:26:39;;;;;;;5.60;3.55;;;;;;;;;;2558681;23;19997;-93
2023/07/09 05:27:39;;;;;;;5.07;3.90;;;;;;;;;;2577043;23;19997;-95
2023/07/09 05:28:42;;;;;;;5.20;3.70;;;;;;;;;;2589811;23;19996;-91
2023/07/09 05:30:11;;;;;;;4.53;3.78;;;;;;;;;;2575013;23;20007;-95
2023/07/09 05:31:12;;;;;;;6.90;4.15;;;;;;;;;;2580044;22;20016;-94
2023/07/09 05:32:17;;;;;;;6.45;3.75;;;;;;;;;;2571961;23;20043;-94
2023/07/09 05:33:18;;;;;;;5.93;3.65;;;;;;;;;;2560501;23;20060;-95
2023/07/09 05:34:19;;;;;;;3.72;3.42;;;;;;;;;;2570873;23;20095;-93
2023/07/09 05:35:20;;;;;;;5.65;3.70;;;;;;;;;;2586668;23;19992;-94
2023/07/09 05:36:20;;;;;;;4.13;3.28;;;;;;;;;;2569913;23;20510;-95
2023/07/09 05:37:21;;;;;;;6.20;3.85;;;;;;;;;;2575196;23;20083;-94
2023/07/09 05:38:21;;;;;;;5.25;3.65;;;;;;;;;;2574227;23;20038;-94
2023/07/09 05:39:22;;;;;;;5.60;4.35;;;;;;;;;;2575596;23;19996;-96
2023/07/09 05:40:22;;;;;;;6.18;3.83;;;;;;;;;;2592441;23;19992;-96
2023/07/09 05:42:34;;;;;;;4.63;3.58;;;;;;;;;;2599901;22;20003;-95
2023/07/09 05:44:22;;;;;;;6.75;4.47;;;;;;;;;;2588555;23;20011;-94
2023/07/09 05:45:23;;;;;;;5.30;4.00;;;;;;;;;;2596900;22;20400;-95
2023/07/09 05:46:23;;;;;;;4.38;3.47;;;;;;;;;;2599756;22;19992;-95
2023/07/09 05:47:24;;;;;;;6.82;3.47;;;;;;;;;;2600651;22;20014;-92
2023/07/09 05:48:28;;;;;;;4.40;3.08;;;;;;;;;;2606108;22;20027;-94
2023/07/09 05:49:31;;;;;;;4.70;3.22;;;;;;;;;;2587739;23;20115;-96
2023/07/09 06:00:41;;;;;;;4.78;3.08;;;;;;;;;;2600085;22;20066;-94
2023/07/09 06:01:41;;;;;;;4.15;3.25;;;;;;;;;;2599927;22;20014;-94
2023/07/09 06:02:42;;;;;;;5.65;3.70;;;;;;;;;;2583047;23;20003;-94
2023/07/09 06:03:45;;;;;;;6.95;3.90;;;;;;;;;;2587086;23;19992;-95
2023/07/09 06:04:48;;;;;;;4.32;3.45;;;;;;;;;;2599981;22;20426;-93
2023/07/09 06:05:49;;;;;;;4.95;3.60;;;;;;;;;;2582183;23;20000;-94
2023/07/09 06:06:50;;;;;;;5.22;3.20;;;;;;;;;;2569798;23;20024;-95
2023/07/09 06:07:50;;;;;;;4.13;3.08;;;;;;;;;;2569910;23;20007;-95
2023/07/09 06:08:51;;;;;;;4.47;3.10;;;;;;;;;;2586209;23;19988;-96
2023/07/09 06:09:52;;;;;;;6.30;3.30;;;;;;;;;;2594987;22;19996;-94
2023/07/09 06:10:55;;;;;;;4.45;3.38;;;;;;;;;;2583132;23;20086;-95
2023/07/09 06:11:56;;;;;;;3.75;3.10;;;;;;;;;;2588401;22;20028;-94
2023/07/09 06:12:58;;;;;;;5.35;3.15;;;;;;;;;;2582133;22;20031;-95
2023/07/09 06:13:58;;;;;;;7.03;3.30;;;;;;;;;;2586976;22;20071;-95
2023/07/09 06:14:59;;;;;;;6.72;3.05;;;;;;;;;;2582386;23;20058;-94
2023/07/09 06:16:00;;;;;;;3.72;3.10;;;;;;;;;;2583055;23;19988;-94
2023/07/09 06:17:01;;;;;;;4.65;3.10;;;;;;;;;;2582869;23;19999;-94
2023/07/09 06:18:01;;;;;;;3.80;2.85;;;;;;;;;;2582902;23;19995;-95
2023/07/09 06:19:02;;;;;;;3.70;3.40;;;;;;;;;;2599041;22;20460;-95
2023/07/09 06:20:04;;;;;;;4.05;3.05;;;;;;;;;;2600364;22;20004;-95
2023/07/09 06:21:04;;;;;;;6.80;3.60;;;;;;;;;;2582571;23;19995;-94
2023/07/09 06:22:05;;;;;;;3.30;3.00;;;;;;;;;;2569858;23;20027;-96
2023/07/09 06:23:07;;;;;;;3.55;3.20;;;;;;;;;;2581730;23;19996;-94
2023/07/09 06:24:08;;;;;;;5.93;3.47;;;;;;;;;;2581863;23;20079;-94
2023/07/09 06:25:09;;;;;;;4.72;3.28;;;;;;;;;;2586517;23;20018;-94
2023/07/09 06:26:09;;;;;;;3.55;3.25;;;;;;;;;;2599893;22;19992;-95
2023/07/09 06:27:10;;;;;;;3.47;3.03;;;;;;;;;;2140838;22;10246692;-93
2023/07/09 06:28:10;;;;;;;3.72;3.00;;;;;;;;;;2587961;23;20771;-93
2023/07/09 06:29:10;;;;;;;5.53;2.92;;;;;;;;;;2582087;22;20027;-95
2023/07/09 06:30:11;;;;;;;2.97;2.75;;;;;;;;;;2569419;23;20004;-94
2023/07/09 06:31:14;;;;;;;4.22;2.78;;;;;;;;;;2583278;23;20061;-95